createdAt,value
2019-04-16T00:01:17.624Z,13.80
2019-04-16T00:03:54.898Z,13.80
2019-04-16T00:06:37.915Z,13.80
2019-04-16T00:09:09.042Z,13.80
2019-04-16T00:11:49.134Z,13.70
2019-04-16T00:14:26.074Z,13.70
2019-04-16T00:16:55.350Z,13.70
2019-04-16T00:19:24.659Z,13.70
2019-04-16T00:21:58.564Z,13.60
2019-04-16T00:24:35.992Z,13.60
2019-04-16T00:27:05.419Z,13.60
2019-04-16T00:29:34.704Z,13.50
2019-04-16T00:32:09.099Z,13.50
2019-04-16T00:34:36.690Z,13.50
2019-04-16T00:37:06.058Z,13.50
2019-04-16T00:39:35.520Z,13.50
2019-04-16T00:42:04.949Z,13.40
2019-04-16T00:44:34.245Z,13.30
2019-04-16T00:47:03.565Z,13.30
2019-04-16T00:49:32.850Z,13.20
2019-04-16T00:52:05.681Z,13.20
2019-04-16T00:54:33.170Z,13.20
2019-04-16T00:57:02.477Z,13.20
2019-04-16T00:59:31.754Z,13.20
2019-04-16T01:02:01.110Z,13.10
2019-04-16T01:04:30.401Z,13.10
2019-04-16T01:06:59.870Z,13.00
2019-04-16T01:09:29.246Z,13.00
2019-04-16T01:11:58.667Z,12.90
2019-04-16T01:14:27.983Z,12.90
2019-04-16T01:16:57.282Z,12.90
2019-04-16T01:19:26.673Z,12.90
2019-04-16T01:21:56.044Z,12.90
2019-04-16T01:24:27.145Z,12.90
2019-04-16T01:26:58.255Z,12.80
2019-04-16T01:29:27.550Z,12.80
2019-04-16T01:32:01.372Z,12.70
2019-04-16T01:34:38.274Z,12.80
2019-04-16T01:37:25.870Z,12.70
2019-04-16T01:39:57.458Z,12.70
2019-04-16T01:42:26.744Z,12.70
2019-04-16T01:44:59.350Z,12.60
2019-04-16T01:47:28.056Z,12.60
2019-04-16T01:49:57.354Z,12.60
2019-04-16T01:52:26.646Z,12.50
2019-04-16T01:54:55.938Z,12.60
2019-04-16T01:57:25.408Z,12.50
2019-04-16T01:59:54.734Z,12.60
2019-04-16T02:02:24.107Z,12.60
2019-04-16T02:04:53.874Z,12.50
2019-04-16T02:07:27.621Z,12.50
2019-04-16T02:09:55.858Z,12.50
2019-04-16T02:12:25.215Z,12.50
2019-04-16T02:14:54.546Z,12.50
2019-04-16T02:17:26.669Z,12.50
2019-04-16T02:19:54.924Z,12.40
2019-04-16T02:22:24.286Z,12.40
2019-04-16T02:24:53.578Z,12.40
2019-04-16T02:27:25.821Z,12.40
2019-04-16T02:29:53.968Z,12.40
2019-04-16T02:32:23.269Z,12.40
2019-04-16T02:34:52.575Z,12.40
2019-04-16T02:37:22.045Z,12.30
2019-04-16T02:39:51.348Z,12.30
2019-04-16T02:42:20.860Z,12.30
2019-04-16T02:44:50.511Z,12.20
2019-04-16T02:47:19.889Z,12.20
2019-04-16T02:49:49.197Z,12.20
2019-04-16T02:52:26.146Z,12.20
2019-04-16T02:55:14.434Z,12.20
2019-04-16T02:58:03.693Z,12.10
2019-04-16T03:00:50.812Z,12.00
2019-04-16T03:03:27.482Z,11.90
2019-04-16T03:06:00.662Z,11.90
2019-04-16T03:08:28.730Z,11.90
2019-04-16T03:10:58.142Z,11.80
2019-04-16T03:13:27.975Z,11.80
2019-04-16T03:16:05.697Z,11.80
2019-04-16T03:18:36.544Z,11.80
2019-04-16T03:21:05.903Z,11.80
2019-04-16T03:23:37.535Z,11.70
2019-04-16T03:26:06.286Z,11.70
2019-04-16T03:28:35.591Z,11.80
2019-04-16T03:31:08.850Z,11.80
2019-04-16T03:33:35.973Z,11.70
2019-04-16T03:36:05.390Z,11.70
2019-04-16T03:38:37.382Z,11.70
2019-04-16T03:41:06.751Z,11.70
2019-04-16T03:43:36.244Z,11.70
2019-04-16T03:46:05.754Z,11.60
2019-04-16T03:48:35.185Z,11.60
2019-04-16T03:51:05.171Z,11.60
2019-04-16T03:53:34.477Z,11.60
2019-04-16T03:56:03.778Z,11.60
2019-04-16T03:58:35.518Z,11.60
2019-04-16T04:01:04.202Z,11.50
2019-04-16T04:03:33.543Z,11.50
2019-04-16T04:06:03.616Z,11.40
2019-04-16T04:08:34.376Z,11.40
2019-04-16T04:11:09.092Z,11.40
2019-04-16T04:13:34.846Z,11.40
2019-04-16T04:16:04.533Z,11.30
2019-04-16T04:18:33.836Z,11.30
2019-04-16T04:21:03.194Z,11.30
2019-04-16T04:23:32.519Z,11.30
2019-04-16T04:26:01.814Z,11.30
2019-04-16T04:28:31.182Z,11.30
2019-04-16T04:31:03.988Z,11.30
2019-04-16T04:33:40.847Z,11.30
2019-04-16T04:36:10.693Z,11.20
2019-04-16T04:38:40.429Z,11.20
2019-04-16T04:41:09.803Z,11.20
2019-04-16T04:43:39.219Z,11.10
2019-04-16T04:46:12.987Z,11.10
2019-04-16T04:48:39.669Z,11.00
2019-04-16T04:51:09.126Z,10.90
2019-04-16T04:53:38.545Z,11.00
2019-04-16T04:56:07.930Z,11.00
2019-04-16T04:58:37.289Z,11.00
2019-04-16T05:01:09.256Z,10.90
2019-04-16T05:03:55.838Z,11.00
2019-04-16T05:06:27.984Z,10.90
2019-04-16T05:09:00.357Z,10.90
2019-04-16T05:11:28.585Z,10.90
2019-04-16T05:13:57.929Z,10.90
2019-04-16T05:16:31.576Z,10.90
2019-04-16T05:18:59.865Z,10.90
2019-04-16T05:21:29.184Z,10.90
2019-04-16T05:23:58.549Z,10.90
2019-04-16T05:26:28.015Z,10.90
2019-04-16T05:28:59.005Z,10.90
2019-04-16T05:31:30.988Z,11.00
2019-04-16T05:34:02.356Z,11.00
2019-04-16T05:36:30.935Z,11.00
2019-04-16T05:39:03.507Z,11.00
2019-04-16T05:41:31.413Z,11.10
2019-04-16T05:44:01.821Z,11.00
2019-04-16T05:46:31.589Z,11.10
2019-04-16T05:49:00.871Z,11.10
2019-04-16T05:51:31.416Z,11.10
2019-04-16T05:54:13.257Z,11.10
2019-04-16T05:56:54.474Z,11.10
2019-04-16T05:59:21.397Z,11.10
2019-04-16T06:02:04.381Z,11.10
2019-04-16T06:04:33.991Z,11.10
2019-04-16T06:07:07.414Z,11.20
2019-04-16T06:09:34.301Z,11.30
2019-04-16T06:12:05.938Z,11.50
2019-04-16T06:14:49.664Z,11.50
2019-04-16T06:17:21.604Z,11.60
2019-04-16T06:20:01.336Z,11.60
2019-04-16T06:22:32.629Z,11.60
2019-04-16T06:25:08.247Z,11.60
2019-04-16T06:27:39.259Z,11.70
2019-04-16T06:30:15.749Z,11.80
2019-04-16T06:32:49.627Z,11.90
2019-04-16T06:35:43.067Z,12.00
2019-04-16T06:38:08.475Z,12.10
2019-04-16T06:40:45.523Z,12.10
2019-04-16T06:43:22.603Z,12.20
2019-04-16T06:46:09.440Z,12.30
2019-04-16T06:48:52.821Z,12.30
2019-04-16T06:51:32.940Z,12.30
2019-04-16T06:54:11.124Z,12.30
2019-04-16T06:56:58.575Z,12.40
2019-04-16T06:59:38.699Z,12.40
2019-04-16T07:02:15.409Z,12.50
2019-04-16T07:04:49.140Z,12.60
2019-04-16T07:07:40.067Z,12.60
2019-04-16T07:10:08.169Z,12.70
2019-04-16T07:12:38.485Z,12.90
2019-04-16T07:15:09.351Z,13.00
2019-04-16T07:17:40.485Z,13.10
2019-04-16T07:20:13.120Z,13.20
2019-04-16T07:22:41.034Z,13.20
2019-04-16T07:25:10.468Z,13.30
2019-04-16T07:27:44.730Z,13.40
2019-04-16T07:30:19.684Z,13.50
2019-04-16T07:32:48.447Z,13.60
2019-04-16T07:35:34.728Z,13.70
2019-04-16T07:38:18.408Z,13.90
2019-04-16T07:41:11.025Z,14.00
2019-04-16T07:43:46.318Z,14.00
2019-04-16T07:46:33.591Z,14.00
2019-04-16T07:49:13.586Z,14.10
2019-04-16T07:51:50.543Z,14.20
2019-04-16T07:54:37.604Z,14.30
2019-04-16T07:57:06.907Z,14.40
2019-04-16T07:59:36.199Z,14.40
2019-04-16T08:02:05.495Z,14.40
2019-04-16T08:04:35.616Z,14.60
2019-04-16T08:07:05.958Z,14.60
2019-04-16T08:09:35.247Z,14.70
2019-04-16T08:12:04.808Z,14.70
2019-04-16T08:14:34.295Z,14.80
2019-04-16T08:17:03.664Z,14.90
2019-04-16T08:19:37.221Z,14.90
2019-04-16T08:22:04.010Z,15.00
2019-04-16T08:24:37.943Z,15.10
2019-04-16T08:27:09.846Z,15.20
2019-04-16T08:29:38.242Z,15.30
2019-04-16T08:32:07.619Z,15.30
2019-04-16T08:34:36.919Z,15.40
2019-04-16T08:37:08.307Z,15.50
2019-04-16T08:39:39.790Z,15.60
2019-04-16T08:42:08.290Z,15.60
2019-04-16T08:44:37.617Z,15.80
2019-04-16T08:47:11.495Z,15.80
2019-04-16T08:49:37.970Z,15.90
2019-04-16T08:52:09.858Z,16.00
2019-04-16T08:54:38.306Z,16.10
2019-04-16T08:57:07.671Z,16.10
2019-04-16T08:59:39.485Z,16.10
2019-04-16T09:02:08.015Z,16.20
2019-04-16T09:04:37.458Z,16.30
2019-04-16T09:07:12.082Z,16.50
2019-04-16T09:09:42.131Z,16.50
2019-04-16T09:12:11.453Z,16.60
2019-04-16T09:14:42.564Z,16.70
2019-04-16T09:17:13.546Z,16.80
2019-04-16T09:19:44.541Z,16.90
2019-04-16T09:22:16.822Z,17.00
2019-04-16T09:24:52.115Z,17.10
2019-04-16T09:27:28.774Z,17.10
2019-04-16T09:30:01.623Z,17.10
2019-04-16T09:32:41.550Z,17.00
2019-04-16T09:35:21.734Z,17.20
2019-04-16T09:38:09.325Z,17.20
2019-04-16T09:40:49.282Z,17.30
2019-04-16T09:43:20.398Z,17.20
2019-04-16T09:45:49.707Z,17.20
2019-04-16T09:48:19.191Z,17.40
2019-04-16T09:50:48.489Z,17.40
2019-04-16T09:53:17.795Z,17.40
2019-04-16T09:55:47.589Z,17.60
2019-04-16T09:58:25.108Z,17.60
2019-04-16T10:00:56.115Z,17.70
2019-04-16T10:03:32.720Z,17.70
2019-04-16T10:06:05.385Z,17.90
2019-04-16T10:08:33.575Z,18.00
2019-04-16T10:11:05.992Z,18.00
2019-04-16T10:13:36.337Z,18.10
2019-04-16T10:16:05.770Z,18.10
2019-04-16T10:18:35.967Z,18.20
2019-04-16T10:21:05.546Z,18.30
2019-04-16T10:23:51.610Z,18.30
2019-04-16T10:26:21.368Z,18.50
2019-04-16T10:28:50.789Z,18.40
2019-04-16T10:31:21.800Z,18.50
2019-04-16T10:33:51.167Z,18.60
2019-04-16T10:36:20.579Z,18.80
2019-04-16T10:38:51.633Z,18.80
2019-04-16T10:41:22.655Z,18.90
2019-04-16T10:44:10.224Z,19.00
2019-04-16T10:46:50.278Z,19.00
2019-04-16T10:49:24.406Z,19.00
2019-04-16T10:51:55.414Z,19.00
2019-04-16T10:54:39.188Z,19.20
2019-04-16T10:57:26.486Z,19.40
2019-04-16T11:00:00.043Z,19.50
2019-04-16T11:02:40.007Z,19.60
2019-04-16T11:05:20.386Z,19.80
2019-04-16T11:07:51.612Z,20.00
2019-04-16T11:10:20.966Z,20.00
2019-04-16T11:12:50.352Z,20.10
2019-04-16T11:15:21.614Z,20.20
2019-04-16T11:17:50.990Z,20.30
2019-04-16T11:20:20.346Z,20.40
2019-04-16T11:22:49.916Z,20.50
2019-04-16T11:25:19.309Z,20.60
2019-04-16T11:27:48.869Z,20.70
2019-04-16T11:30:36.385Z,21.00
2019-04-16T11:33:06.174Z,21.00
2019-04-16T11:35:35.463Z,21.20
2019-04-16T11:38:05.042Z,21.30
2019-04-16T11:40:34.352Z,21.40
2019-04-16T11:43:04.007Z,21.50
2019-04-16T11:45:33.431Z,21.50
2019-04-16T11:48:02.968Z,21.60
2019-04-16T11:50:35.819Z,21.70
2019-04-16T11:53:03.553Z,21.80
2019-04-16T11:55:32.925Z,21.90
2019-04-16T11:58:02.653Z,21.80
2019-04-16T12:00:43.044Z,21.80
2019-04-16T12:03:23.004Z,21.80
2019-04-16T12:06:10.464Z,21.70
2019-04-16T12:08:47.984Z,21.80
2019-04-16T12:11:21.642Z,21.80
2019-04-16T12:13:58.270Z,21.90
2019-04-16T12:16:38.262Z,22.00
2019-04-16T12:19:09.259Z,22.10
2019-04-16T12:21:40.242Z,22.20
2019-04-16T12:24:11.187Z,22.30
2019-04-16T12:26:58.771Z,22.40
2019-04-16T12:29:38.722Z,22.40
2019-04-16T12:32:27.910Z,22.50
2019-04-16T12:35:07.798Z,22.60
2019-04-16T12:37:55.114Z,22.70
2019-04-16T12:40:36.935Z,22.70
2019-04-16T12:43:20.992Z,22.80
2019-04-16T12:46:00.920Z,22.80
2019-04-16T12:48:34.688Z,22.90
2019-04-16T12:51:05.691Z,22.90
2019-04-16T12:53:39.622Z,23.00
2019-04-16T12:56:10.583Z,23.10
2019-04-16T12:58:53.654Z,23.00
2019-04-16T13:01:27.143Z,23.00
2019-04-16T13:04:08.315Z,23.00
2019-04-16T13:06:44.971Z,22.90
2019-04-16T13:09:19.139Z,22.80
2019-04-16T13:11:59.119Z,22.70
2019-04-16T13:14:59.869Z,22.70
2019-04-16T13:17:31.396Z,22.70
2019-04-16T13:20:04.971Z,22.70
2019-04-16T13:22:38.878Z,22.70
2019-04-16T13:25:10.860Z,22.90
2019-04-16T13:27:42.316Z,23.00
2019-04-16T13:30:12.152Z,23.10
2019-04-16T13:32:41.524Z,23.20
2019-04-16T13:35:11.326Z,23.10
2019-04-16T13:37:40.826Z,23.10
2019-04-16T13:40:13.043Z,23.10
2019-04-16T13:42:43.868Z,23.10
2019-04-16T13:45:25.683Z,23.20
2019-04-16T13:47:55.888Z,23.30
2019-04-16T13:50:28.186Z,23.30
2019-04-16T13:52:59.342Z,23.20
2019-04-16T13:55:44.671Z,23.40
2019-04-16T13:58:20.638Z,23.60
2019-04-16T14:01:00.746Z,23.60
2019-04-16T14:03:30.068Z,23.60
2019-04-16T14:05:59.343Z,23.60
2019-04-16T14:08:30.435Z,23.60
2019-04-16T14:10:59.724Z,23.60
2019-04-16T14:13:29.010Z,23.70
2019-04-16T14:15:58.770Z,23.80
2019-04-16T14:18:29.516Z,23.80
2019-04-16T14:20:59.605Z,23.80
2019-04-16T14:23:28.954Z,23.60
2019-04-16T14:25:58.582Z,23.70
2019-04-16T14:28:28.145Z,23.60
2019-04-16T14:30:57.536Z,23.70
2019-04-16T14:33:31.218Z,23.60
2019-04-16T14:36:00.550Z,23.60
2019-04-16T14:38:37.274Z,23.50
2019-04-16T14:41:06.578Z,23.40
2019-04-16T14:43:40.047Z,23.40
2019-04-16T14:46:09.852Z,23.40
2019-04-16T14:48:45.176Z,23.50
2019-04-16T14:51:10.865Z,23.50
2019-04-16T14:53:51.162Z,23.60
2019-04-16T14:56:23.309Z,23.50
2019-04-16T14:59:03.096Z,23.60
2019-04-16T15:01:46.375Z,23.50
2019-04-16T15:04:17.614Z,23.40
2019-04-16T15:06:53.607Z,23.30
2019-04-16T15:09:35.961Z,23.30
2019-04-16T15:12:21.982Z,23.30
2019-04-16T15:14:53.010Z,23.20
2019-04-16T15:17:38.939Z,23.10
2019-04-16T15:20:25.389Z,23.10
2019-04-16T15:23:14.678Z,23.00
2019-04-16T15:26:02.104Z,22.90
2019-04-16T15:28:41.858Z,22.90
2019-04-16T15:31:12.775Z,22.70
2019-04-16T15:33:49.775Z,22.60
2019-04-16T15:36:26.826Z,22.60
2019-04-16T15:38:59.023Z,22.60
2019-04-16T15:41:45.806Z,22.50
2019-04-16T15:44:25.762Z,22.50
2019-04-16T15:47:02.922Z,22.50
2019-04-16T15:49:49.386Z,22.50
2019-04-16T15:52:35.258Z,22.50
2019-04-16T15:55:07.482Z,22.40
2019-04-16T15:57:44.426Z,22.40
2019-04-16T16:00:21.845Z,22.30
2019-04-16T16:03:05.109Z,22.40
2019-04-16T16:05:41.976Z,22.30
2019-04-16T16:08:18.697Z,22.30
2019-04-16T16:10:49.620Z,22.30
2019-04-16T16:13:18.948Z,22.30
2019-04-16T16:15:48.330Z,22.30
2019-04-16T16:18:17.634Z,22.20
2019-04-16T16:20:46.968Z,22.20
2019-04-16T16:23:16.324Z,22.20
2019-04-16T16:25:45.620Z,22.10
2019-04-16T16:28:14.906Z,22.10
2019-04-16T16:30:44.212Z,22.10
2019-04-16T16:33:13.694Z,22.00
2019-04-16T16:35:57.101Z,22.00
2019-04-16T16:38:14.886Z,21.80
2019-04-16T16:40:49.447Z,21.70
2019-04-16T16:43:15.254Z,21.60
2019-04-16T16:45:56.273Z,21.60
2019-04-16T16:48:26.334Z,21.40
2019-04-16T16:50:55.694Z,21.30
2019-04-16T16:53:46.346Z,21.20
2019-04-16T16:56:24.186Z,21.20
2019-04-16T16:59:13.870Z,21.10
2019-04-16T17:01:44.877Z,21.00
2019-04-16T17:04:15.913Z,20.90
2019-04-16T17:06:45.199Z,20.80
2019-04-16T17:09:30.210Z,20.80
2019-04-16T17:11:59.090Z,20.70
2019-04-16T17:14:28.445Z,20.60
2019-04-16T17:17:12.170Z,20.60
2019-04-16T17:19:28.773Z,20.50
2019-04-16T17:21:59.105Z,20.50
2019-04-16T17:24:28.397Z,20.50
2019-04-16T17:26:57.698Z,20.40
2019-04-16T17:29:27.145Z,20.40
2019-04-16T17:31:56.722Z,20.30
2019-04-16T17:34:26.003Z,20.30
2019-04-16T17:36:55.493Z,20.30
2019-04-16T17:39:26.480Z,20.20
2019-04-16T17:42:06.660Z,20.20
2019-04-16T17:44:37.758Z,20.10
2019-04-16T17:47:09.726Z,20.00
2019-04-16T17:49:52.844Z,20.00
2019-04-16T17:52:26.612Z,19.90
2019-04-16T17:55:00.512Z,19.80
2019-04-16T17:57:34.460Z,19.70
2019-04-16T18:00:23.894Z,19.70
2019-04-16T18:03:05.175Z,19.60
2019-04-16T18:05:36.223Z,19.50
2019-04-16T18:08:23.941Z,19.40
2019-04-16T18:11:10.803Z,19.30
2019-04-16T18:13:54.187Z,19.20
2019-04-16T18:16:25.406Z,19.10
2019-04-16T18:18:58.552Z,19.00
2019-04-16T18:21:29.567Z,19.00
2019-04-16T18:24:00.791Z,18.90
2019-04-16T18:26:37.319Z,18.90
2019-04-16T18:29:14.115Z,18.80
2019-04-16T18:31:45.057Z,18.70
2019-04-16T18:34:20.771Z,18.70
2019-04-16T18:36:52.467Z,18.60
2019-04-16T18:39:26.185Z,18.60
2019-04-16T18:41:57.137Z,18.50
2019-04-16T18:44:44.581Z,18.50
2019-04-16T18:47:15.502Z,18.40
2019-04-16T18:49:46.716Z,18.30
2019-04-16T18:52:15.999Z,18.30
2019-04-16T18:54:46.053Z,18.30
2019-04-16T18:57:16.373Z,18.20
2019-04-16T18:59:45.752Z,18.10
2019-04-16T19:02:15.175Z,18.10
2019-04-16T19:04:44.545Z,18.00
2019-04-16T19:07:13.905Z,18.10
2019-04-16T19:09:43.283Z,18.00
2019-04-16T19:12:12.650Z,17.90
2019-04-16T19:14:42.034Z,17.80
2019-04-16T19:17:11.419Z,17.80
2019-04-16T19:19:44.327Z,17.80
2019-04-16T19:22:12.165Z,17.70
2019-04-16T19:24:41.471Z,17.70
2019-04-16T19:27:10.743Z,17.60
2019-04-16T19:29:42.817Z,17.60
2019-04-16T19:32:11.099Z,17.60
2019-04-16T19:34:41.309Z,17.50
2019-04-16T19:37:11.268Z,17.50
2019-04-16T19:39:40.595Z,17.40
2019-04-16T19:42:11.400Z,17.40
2019-04-16T19:44:40.987Z,17.40
2019-04-16T19:47:10.343Z,17.40
2019-04-16T19:49:39.687Z,17.30
2019-04-16T19:52:09.077Z,17.30
2019-04-16T19:54:38.378Z,17.30
2019-04-16T19:57:07.680Z,17.20
2019-04-16T19:59:37.057Z,17.20
2019-04-16T20:02:06.715Z,17.20
2019-04-16T20:04:36.119Z,17.20
2019-04-16T20:07:05.479Z,17.10
2019-04-16T20:09:39.059Z,17.10
2019-04-16T20:12:07.516Z,17.10
2019-04-16T20:14:36.979Z,17.10
2019-04-16T20:17:06.267Z,17.00
2019-04-16T20:19:37.235Z,17.00
2019-04-16T20:22:06.515Z,17.10
2019-04-16T20:24:36.000Z,17.10
2019-04-16T20:27:06.867Z,17.00
2019-04-16T20:29:36.525Z,17.00
2019-04-16T20:32:05.903Z,17.00
2019-04-16T20:34:35.851Z,17.00
2019-04-16T20:37:05.365Z,17.00
2019-04-16T20:39:34.631Z,17.00
2019-04-16T20:42:03.934Z,17.10
2019-04-16T20:44:33.239Z,17.00
2019-04-16T20:47:07.714Z,17.00
2019-04-16T20:49:35.091Z,17.00
2019-04-16T20:52:04.654Z,17.00
2019-04-16T20:54:34.327Z,17.00
2019-04-16T20:57:03.695Z,17.00
2019-04-16T20:59:36.000Z,17.00
2019-04-16T21:02:04.264Z,17.00
2019-04-16T21:04:42.500Z,17.00
2019-04-16T21:07:15.331Z,17.00
2019-04-16T21:09:44.495Z,17.00
2019-04-16T21:12:13.936Z,17.00
2019-04-16T21:14:43.357Z,17.00
2019-04-16T21:17:12.646Z,17.00
2019-04-16T21:19:46.563Z,17.00
2019-04-16T21:22:16.224Z,17.00
2019-04-16T21:24:46.426Z,17.00
2019-04-16T21:27:15.891Z,17.00
2019-04-16T21:29:45.714Z,16.90
2019-04-16T21:32:22.630Z,16.90
2019-04-16T21:35:00.880Z,16.90
2019-04-16T21:37:35.004Z,16.90
2019-04-16T21:40:06.458Z,16.90
2019-04-16T21:42:35.855Z,16.90
2019-04-16T21:45:07.056Z,16.90
2019-04-16T21:47:37.517Z,16.90
2019-04-16T21:50:07.415Z,16.90
2019-04-16T21:52:36.922Z,16.80
2019-04-16T21:55:07.855Z,16.90
2019-04-16T21:57:37.247Z,16.90
2019-04-16T22:00:09.816Z,16.90
2019-04-16T22:02:41.152Z,16.90
2019-04-16T22:05:11.406Z,16.90
2019-04-16T22:07:40.710Z,16.90
2019-04-16T22:10:10.810Z,16.90
2019-04-16T22:12:40.106Z,16.90
2019-04-16T22:15:09.743Z,16.90
2019-04-16T22:17:39.111Z,16.90
2019-04-16T22:20:09.066Z,16.90
2019-04-16T22:22:38.460Z,16.90
2019-04-16T22:25:07.918Z,16.80
2019-04-16T22:27:39.767Z,16.80
2019-04-16T22:30:08.598Z,16.80
2019-04-16T22:32:37.944Z,16.70
2019-04-16T22:35:08.010Z,16.70
2019-04-16T22:37:37.300Z,16.70
2019-04-16T22:40:24.792Z,16.70
2019-04-16T22:43:00.870Z,16.70
2019-04-16T22:45:38.822Z,16.70
2019-04-16T22:48:08.171Z,16.70
2019-04-16T22:50:38.182Z,16.70
2019-04-16T22:53:08.158Z,16.60
2019-04-16T22:55:37.442Z,16.60
2019-04-16T22:58:10.354Z,16.60
2019-04-16T23:00:44.401Z,16.50
2019-04-16T23:03:16.594Z,16.50
2019-04-16T23:05:45.581Z,16.50
2019-04-16T23:08:14.904Z,16.50
2019-04-16T23:10:44.258Z,16.50
2019-04-16T23:13:13.698Z,16.50
2019-04-16T23:15:43.172Z,16.50
2019-04-16T23:18:17.262Z,16.50
2019-04-16T23:20:44.101Z,16.50
2019-04-16T23:23:17.870Z,16.50
2019-04-16T23:25:44.462Z,16.40
2019-04-16T23:28:13.759Z,16.40
2019-04-16T23:30:43.061Z,16.40
2019-04-16T23:33:12.422Z,16.40
2019-04-16T23:35:44.425Z,16.40
2019-04-16T23:38:13.805Z,16.40
2019-04-16T23:40:44.742Z,16.40
2019-04-16T23:43:18.797Z,16.40
2019-04-16T23:45:58.083Z,16.40
2019-04-16T23:48:33.795Z,16.40
2019-04-16T23:51:07.481Z,16.30
2019-04-16T23:53:39.048Z,16.30
2019-04-16T23:56:22.165Z,16.30
2019-04-16T23:59:01.438Z,16.30
